Terminal Aerodrome Forecast
Issued by NWS

Home | Current Version | Previous Version | Text Only | Print | Product List | Glossary On
Versions: 1 2 3 4 5 6 7 8 9 10 11 12 13 14 15 16 17 18 19 20 21 22 23 24 25 26
000
FTUS43 KDLH 271001 AAB
TAFBRD
TAF AMD
KBRD 271001Z 2710/2806 00000KT P6SM SKC
      TEMPO 2710/2712 2SM BR
     FM271400 23007KT P6SM SCT100
     FM272100 21010KT P6SM VCTS BKN050CB
     FM280200 19010KT P6SM VCTS BKN050CB=

USA.gov is the U.S. government's official web portal to all federal, state and local government web resources and services.